sensor_id;sensor_type;location;lat;lon;timestamp;P1;durP1;ratioP1;P2;durP2;ratioP2
27706;SDS011;36332;51.384;0.040;2023-06-04T00:02:25;11.27;;;2.83;;
27706;SDS011;36332;51.384;0.040;2023-06-04T00:04:53;13.52;;;3.67;;
27706;SDS011;36332;51.384;0.040;2023-06-04T00:07:21;12.43;;;2.70;;
27706;SDS011;36332;51.384;0.040;2023-06-04T00:09:48;12.82;;;3.92;;
27706;SDS011;36332;51.384;0.040;2023-06-04T00:12:16;16.27;;;3.40;;
27706;SDS011;36332;51.384;0.040;2023-06-04T00:14:44;14.05;;;3.38;;
27706;SDS011;36332;51.384;0.040;2023-06-04T00:17:12;20.15;;;3.92;;
27706;SDS011;36332;51.384;0.040;2023-06-04T00:19:40;17.80;;;3.90;;
27706;SDS011;36332;51.384;0.040;2023-06-04T00:22:08;16.15;;;3.28;;
27706;SDS011;36332;51.384;0.040;2023-06-04T00:24:37;16.60;;;3.72;;
27706;SDS011;36332;51.384;0.040;2023-06-04T00:27:09;13.10;;;2.92;;
27706;SDS011;36332;51.384;0.040;2023-06-04T00:29:37;10.35;;;3.25;;
27706;SDS011;36332;51.384;0.040;2023-06-04T00:32:05;20.48;;;3.50;;
27706;SDS011;36332;51.384;0.040;2023-06-04T00:34:34;18.33;;;3.88;;
27706;SDS011;36332;51.384;0.040;2023-06-04T00:37:01;11.75;;;3.17;;
27706;SDS011;36332;51.384;0.040;2023-06-04T00:39:30;15.63;;;3.53;;
27706;SDS011;36332;51.384;0.040;2023-06-04T00:41:57;11.13;;;2.85;;
27706;SDS011;36332;51.384;0.040;2023-06-04T00:44:25;12.93;;;3.10;;
27706;SDS011;36332;51.384;0.040;2023-06-04T00:46:53;13.82;;;3.60;;
27706;SDS011;36332;51.384;0.040;2023-06-04T00:49:22;14.77;;;3.65;;
27706;SDS011;36332;51.384;0.040;2023-06-04T00:51:50;25.50;;;3.80;;
27706;SDS011;36332;51.384;0.040;2023-06-04T00:54:19;20.33;;;3.83;;
27706;SDS011;36332;51.384;0.040;2023-06-04T00:56:47;13.23;;;4.20;;
27706;SDS011;36332;51.384;0.040;2023-06-04T00:59:15;16.70;;;4.32;;
27706;SDS011;36332;51.384;0.040;2023-06-04T01:01:51;15.18;;;3.78;;
27706;SDS011;36332;51.384;0.040;2023-06-04T01:04:27;21.58;;;3.90;;
27706;SDS011;36332;51.384;0.040;2023-06-04T01:07:00;11.70;;;4.28;;
27706;SDS011;36332;51.384;0.040;2023-06-04T01:09:30;12.70;;;3.42;;
27706;SDS011;36332;51.384;0.040;2023-06-04T01:11:58;16.73;;;4.18;;
27706;SDS011;36332;51.384;0.040;2023-06-04T01:14:28;21.45;;;3.90;;
27706;SDS011;36332;51.384;0.040;2023-06-04T01:16:57;23.65;;;4.38;;
27706;SDS011;36332;51.384;0.040;2023-06-04T01:22:26;19.15;;;4.28;;
27706;SDS011;36332;51.384;0.040;2023-06-04T01:24:59;13.65;;;3.88;;
27706;SDS011;36332;51.384;0.040;2023-06-04T01:27:31;17.13;;;4.13;;
27706;SDS011;36332;51.384;0.040;2023-06-04T01:30:02;21.45;;;4.30;;
27706;SDS011;36332;51.384;0.040;2023-06-04T01:32:31;14.35;;;4.03;;
27706;SDS011;36332;51.384;0.040;2023-06-04T01:34:59;16.48;;;4.07;;
27706;SDS011;36332;51.384;0.040;2023-06-04T01:37:27;19.63;;;3.85;;
27706;SDS011;36332;51.384;0.040;2023-06-04T01:39:54;19.80;;;4.47;;
27706;SDS011;36332;51.384;0.040;2023-06-04T01:42:22;22.88;;;4.68;;
27706;SDS011;36332;51.384;0.040;2023-06-04T01:44:50;25.25;;;3.92;;
27706;SDS011;36332;51.384;0.040;2023-06-04T01:47:17;15.32;;;5.28;;
27706;SDS011;36332;51.384;0.040;2023-06-04T01:49:45;27.92;;;5.45;;
27706;SDS011;36332;51.384;0.040;2023-06-04T01:52:13;13.82;;;3.90;;
27706;SDS011;36332;51.384;0.040;2023-06-04T01:54:40;21.60;;;4.93;;
27706;SDS011;36332;51.384;0.040;2023-06-04T01:57:09;21.67;;;4.40;;
27706;SDS011;36332;51.384;0.040;2023-06-04T01:59:37;18.15;;;4.72;;
27706;SDS011;36332;51.384;0.040;2023-06-04T02:02:05;18.52;;;4.28;;
27706;SDS011;36332;51.384;0.040;2023-06-04T02:04:33;19.10;;;4.25;;
27706;SDS011;36332;51.384;0.040;2023-06-04T02:07:03;16.40;;;3.78;;
27706;SDS011;36332;51.384;0.040;2023-06-04T02:09:31;16.50;;;5.38;;
27706;SDS011;36332;51.384;0.040;2023-06-04T02:11:58;10.15;;;4.03;;
27706;SDS011;36332;51.384;0.040;2023-06-04T02:14:27;19.17;;;4.55;;
27706;SDS011;36332;51.384;0.040;2023-06-04T02:16:55;19.50;;;4.53;;
27706;SDS011;36332;51.384;0.040;2023-06-04T02:19:25;20.05;;;5.22;;
27706;SDS011;36332;51.384;0.040;2023-06-04T02:21:55;22.35;;;6.32;;
27706;SDS011;36332;51.384;0.040;2023-06-04T02:24:23;22.25;;;5.28;;
27706;SDS011;36332;51.384;0.040;2023-06-04T02:26:50;17.40;;;4.60;;
27706;SDS011;36332;51.384;0.040;2023-06-04T02:29:18;21.25;;;4.50;;
27706;SDS011;36332;51.384;0.040;2023-06-04T02:31:45;20.17;;;4.45;;
27706;SDS011;36332;51.384;0.040;2023-06-04T02:34:13;20.85;;;5.43;;
27706;SDS011;36332;51.384;0.040;2023-06-04T02:36:41;16.92;;;4.97;;
27706;SDS011;36332;51.384;0.040;2023-06-04T02:39:15;18.23;;;4.88;;
27706;SDS011;36332;51.384;0.040;2023-06-04T02:41:43;17.98;;;4.10;;
27706;SDS011;36332;51.384;0.040;2023-06-04T02:44:11;19.85;;;5.03;;
27706;SDS011;36332;51.384;0.040;2023-06-04T02:46:39;16.73;;;4.50;;
27706;SDS011;36332;51.384;0.040;2023-06-04T02:49:07;19.05;;;4.72;;
27706;SDS011;36332;51.384;0.040;2023-06-04T02:51:35;12.02;;;4.20;;
27706;SDS011;36332;51.384;0.040;2023-06-04T02:54:03;24.00;;;5.25;;
27706;SDS011;36332;51.384;0.040;2023-06-04T02:56:30;23.20;;;4.35;;
27706;SDS011;36332;51.384;0.040;2023-06-04T02:58:58;19.85;;;5.45;;
27706;SDS011;36332;51.384;0.040;2023-06-04T03:01:26;28.52;;;4.25;;
27706;SDS011;36332;51.384;0.040;2023-06-04T03:03:55;19.33;;;4.85;;
27706;SDS011;36332;51.384;0.040;2023-06-04T03:06:24;14.35;;;4.70;;
27706;SDS011;36332;51.384;0.040;2023-06-04T03:08:53;19.23;;;4.72;;
27706;SDS011;36332;51.384;0.040;2023-06-04T03:11:21;23.88;;;4.40;;
27706;SDS011;36332;51.384;0.040;2023-06-04T03:13:49;24.38;;;4.95;;
27706;SDS011;36332;51.384;0.040;2023-06-04T03:16:18;15.02;;;4.40;;
27706;SDS011;36332;51.384;0.040;2023-06-04T03:18:47;20.27;;;5.32;;
27706;SDS011;36332;51.384;0.040;2023-06-04T03:21:15;17.75;;;5.05;;
27706;SDS011;36332;51.384;0.040;2023-06-04T03:23:44;21.90;;;5.07;;
27706;SDS011;36332;51.384;0.040;2023-06-04T03:26:12;19.10;;;4.68;;
27706;SDS011;36332;51.384;0.040;2023-06-04T03:28:40;24.13;;;6.18;;
27706;SDS011;36332;51.384;0.040;2023-06-04T03:31:09;16.77;;;5.47;;
27706;SDS011;36332;51.384;0.040;2023-06-04T03:33:37;15.02;;;5.03;;
27706;SDS011;36332;51.384;0.040;2023-06-04T03:36:04;19.50;;;5.38;;
27706;SDS011;36332;51.384;0.040;2023-06-04T03:38:32;19.58;;;5.45;;
27706;SDS011;36332;51.384;0.040;2023-06-04T03:41:00;20.20;;;4.78;;
27706;SDS011;36332;51.384;0.040;2023-06-04T03:43:28;16.95;;;4.63;;
27706;SDS011;36332;51.384;0.040;2023-06-04T03:46:00;25.10;;;5.13;;
27706;SDS011;36332;51.384;0.040;2023-06-04T03:48:27;26.10;;;6.43;;
27706;SDS011;36332;51.384;0.040;2023-06-04T03:50:55;19.75;;;5.50;;
27706;SDS011;36332;51.384;0.040;2023-06-04T03:53:23;16.75;;;5.75;;
27706;SDS011;36332;51.384;0.040;2023-06-04T03:55:51;23.58;;;4.80;;
27706;SDS011;36332;51.384;0.040;2023-06-04T03:58:18;17.80;;;5.68;;
27706;SDS011;36332;51.384;0.040;2023-06-04T04:00:50;18.20;;;5.20;;
27706;SDS011;36332;51.384;0.040;2023-06-04T04:03:18;17.20;;;5.88;;
27706;SDS011;36332;51.384;0.040;2023-06-04T04:05:47;27.58;;;5.75;;
27706;SDS011;36332;51.384;0.040;2023-06-04T04:08:15;29.05;;;5.07;;
27706;SDS011;36332;51.384;0.040;2023-06-04T04:10:44;19.98;;;6.05;;
27706;SDS011;36332;51.384;0.040;2023-06-04T04:13:13;32.10;;;6.25;;
27706;SDS011;36332;51.384;0.040;2023-06-04T04:15:41;20.02;;;5.45;;
27706;SDS011;36332;51.384;0.040;2023-06-04T04:18:10;21.27;;;6.13;;
27706;SDS011;36332;51.384;0.040;2023-06-04T04:20:38;22.83;;;4.95;;
27706;SDS011;36332;51.384;0.040;2023-06-04T04:23:09;23.13;;;6.97;;
27706;SDS011;36332;51.384;0.040;2023-06-04T04:25:40;18.75;;;5.85;;
27706;SDS011;36332;51.384;0.040;2023-06-04T04:28:08;22.25;;;6.72;;
27706;SDS011;36332;51.384;0.040;2023-06-04T04:30:37;19.55;;;5.82;;
27706;SDS011;36332;51.384;0.040;2023-06-04T04:33:07;16.90;;;5.40;;
27706;SDS011;36332;51.384;0.040;2023-06-04T04:35:42;19.20;;;5.88;;
27706;SDS011;36332;51.384;0.040;2023-06-04T04:38:09;21.95;;;6.18;;
27706;SDS011;36332;51.384;0.040;2023-06-04T04:40:44;17.77;;;5.72;;
27706;SDS011;36332;51.384;0.040;2023-06-04T04:43:14;17.42;;;5.80;;
27706;SDS011;36332;51.384;0.040;2023-06-04T04:45:42;21.63;;;6.30;;
27706;SDS011;36332;51.384;0.040;2023-06-04T04:48:10;20.92;;;6.78;;
27706;SDS011;36332;51.384;0.040;2023-06-04T04:50:38;19.20;;;6.20;;
27706;SDS011;36332;51.384;0.040;2023-06-04T04:53:06;19.00;;;5.65;;
27706;SDS011;36332;51.384;0.040;2023-06-04T04:55:35;23.15;;;7.47;;
27706;SDS011;36332;51.384;0.040;2023-06-04T04:58:02;19.27;;;5.93;;
27706;SDS011;36332;51.384;0.040;2023-06-04T05:00:31;19.50;;;6.45;;
27706;SDS011;36332;51.384;0.040;2023-06-04T05:03:00;16.73;;;6.40;;
27706;SDS011;36332;51.384;0.040;2023-06-04T05:05:27;17.00;;;5.50;;
27706;SDS011;36332;51.384;0.040;2023-06-04T05:07:55;18.55;;;6.95;;
27706;SDS011;36332;51.384;0.040;2023-06-04T05:10:29;24.65;;;5.93;;
27706;SDS011;36332;51.384;0.040;2023-06-04T05:12:58;18.58;;;6.18;;
27706;SDS011;36332;51.384;0.040;2023-06-04T05:15:35;20.85;;;6.40;;
27706;SDS011;36332;51.384;0.040;2023-06-04T05:18:04;17.27;;;6.00;;
27706;SDS011;36332;51.384;0.040;2023-06-04T05:20:35;40.88;;;8.10;;
27706;SDS011;36332;51.384;0.040;2023-06-04T05:23:07;25.70;;;5.88;;
27706;SDS011;36332;51.384;0.040;2023-06-04T05:25:36;14.90;;;5.57;;
27706;SDS011;36332;51.384;0.040;2023-06-04T05:28:05;17.38;;;5.18;;
27706;SDS011;36332;51.384;0.040;2023-06-04T05:30:34;25.45;;;6.13;;
27706;SDS011;36332;51.384;0.040;2023-06-04T05:33:03;22.48;;;6.57;;
27706;SDS011;36332;51.384;0.040;2023-06-04T05:35:30;17.15;;;5.30;;
27706;SDS011;36332;51.384;0.040;2023-06-04T05:38:00;17.63;;;6.63;;
27706;SDS011;36332;51.384;0.040;2023-06-04T05:40:28;21.85;;;6.25;;
27706;SDS011;36332;51.384;0.040;2023-06-04T05:42:56;25.45;;;6.38;;
27706;SDS011;36332;51.384;0.040;2023-06-04T05:45:24;18.88;;;5.25;;
27706;SDS011;36332;51.384;0.040;2023-06-04T05:47:55;20.23;;;6.55;;
27706;SDS011;36332;51.384;0.040;2023-06-04T05:50:26;25.27;;;6.03;;
27706;SDS011;36332;51.384;0.040;2023-06-04T05:52:55;21.35;;;5.72;;
27706;SDS011;36332;51.384;0.040;2023-06-04T05:55:24;16.40;;;4.85;;
27706;SDS011;36332;51.384;0.040;2023-06-04T05:57:51;15.50;;;4.93;;
27706;SDS011;36332;51.384;0.040;2023-06-04T06:00:19;21.23;;;5.10;;
27706;SDS011;36332;51.384;0.040;2023-06-04T06:02:49;21.15;;;4.32;;
27706;SDS011;36332;51.384;0.040;2023-06-04T06:05:32;21.45;;;5.82;;
27706;SDS011;36332;51.384;0.040;2023-06-04T06:07:59;18.55;;;4.82;;
27706;SDS011;36332;51.384;0.040;2023-06-04T06:10:27;19.13;;;5.13;;
27706;SDS011;36332;51.384;0.040;2023-06-04T06:12:55;14.18;;;4.60;;
27706;SDS011;36332;51.384;0.040;2023-06-04T06:15:23;16.27;;;4.25;;
27706;SDS011;36332;51.384;0.040;2023-06-04T06:17:52;9.93;;;4.43;;
27706;SDS011;36332;51.384;0.040;2023-06-04T06:20:20;14.27;;;4.50;;
27706;SDS011;36332;51.384;0.040;2023-06-04T06:22:49;24.83;;;6.40;;
27706;SDS011;36332;51.384;0.040;2023-06-04T06:25:18;16.65;;;4.80;;
27706;SDS011;36332;51.384;0.040;2023-06-04T06:27:52;19.33;;;4.60;;
27706;SDS011;36332;51.384;0.040;2023-06-04T06:30:22;9.70;;;4.30;;
27706;SDS011;36332;51.384;0.040;2023-06-04T06:32:49;22.00;;;4.30;;
27706;SDS011;36332;51.384;0.040;2023-06-04T06:35:21;13.32;;;4.20;;
27706;SDS011;36332;51.384;0.040;2023-06-04T06:37:48;18.40;;;4.50;;
27706;SDS011;36332;51.384;0.040;2023-06-04T06:40:16;21.85;;;4.82;;
27706;SDS011;36332;51.384;0.040;2023-06-04T06:42:47;15.25;;;4.45;;
27706;SDS011;36332;51.384;0.040;2023-06-04T06:45:18;14.05;;;4.97;;
27706;SDS011;36332;51.384;0.040;2023-06-04T06:47:46;16.45;;;4.13;;
27706;SDS011;36332;51.384;0.040;2023-06-04T06:50:14;17.00;;;4.38;;
27706;SDS011;36332;51.384;0.040;2023-06-04T06:52:42;21.80;;;5.45;;
27706;SDS011;36332;51.384;0.040;2023-06-04T06:55:09;15.65;;;4.25;;
27706;SDS011;36332;51.384;0.040;2023-06-04T06:57:37;11.57;;;3.97;;
27706;SDS011;36332;51.384;0.040;2023-06-04T07:00:05;10.82;;;4.40;;
27706;SDS011;36332;51.384;0.040;2023-06-04T07:02:34;13.70;;;5.07;;
27706;SDS011;36332;51.384;0.040;2023-06-04T07:05:02;23.83;;;5.00;;
27706;SDS011;36332;51.384;0.040;2023-06-04T07:07:30;15.65;;;5.30;;
27706;SDS011;36332;51.384;0.040;2023-06-04T07:09:58;12.43;;;4.72;;
27706;SDS011;36332;51.384;0.040;2023-06-04T07:12:26;14.48;;;4.78;;
27706;SDS011;36332;51.384;0.040;2023-06-04T07:14:54;11.27;;;4.60;;
27706;SDS011;36332;51.384;0.040;2023-06-04T07:17:22;12.95;;;4.28;;
27706;SDS011;36332;51.384;0.040;2023-06-04T07:19:49;18.17;;;4.32;;
27706;SDS011;36332;51.384;0.040;2023-06-04T07:22:17;18.52;;;5.10;;
27706;SDS011;36332;51.384;0.040;2023-06-04T07:24:45;14.35;;;4.65;;
27706;SDS011;36332;51.384;0.040;2023-06-04T07:27:13;14.63;;;4.15;;
27706;SDS011;36332;51.384;0.040;2023-06-04T07:29:43;14.75;;;4.07;;
27706;SDS011;36332;51.384;0.040;2023-06-04T07:32:12;12.90;;;3.92;;
27706;SDS011;36332;51.384;0.040;2023-06-04T07:34:39;18.70;;;4.55;;
27706;SDS011;36332;51.384;0.040;2023-06-04T07:37:07;14.23;;;4.20;;
27706;SDS011;36332;51.384;0.040;2023-06-04T07:39:37;14.07;;;5.68;;
27706;SDS011;36332;51.384;0.040;2023-06-04T07:42:05;14.20;;;4.60;;
27706;SDS011;36332;51.384;0.040;2023-06-04T07:44:35;16.42;;;4.45;;
27706;SDS011;36332;51.384;0.040;2023-06-04T07:47:04;16.02;;;3.85;;
27706;SDS011;36332;51.384;0.040;2023-06-04T07:49:32;9.52;;;2.88;;
27706;SDS011;36332;51.384;0.040;2023-06-04T07:52:00;15.10;;;4.35;;
27706;SDS011;36332;51.384;0.040;2023-06-04T07:54:28;14.52;;;4.40;;
27706;SDS011;36332;51.384;0.040;2023-06-04T07:56:55;15.88;;;4.07;;
27706;SDS011;36332;51.384;0.040;2023-06-04T07:59:24;12.70;;;3.53;;
27706;SDS011;36332;51.384;0.040;2023-06-04T08:01:52;11.55;;;4.32;;
27706;SDS011;36332;51.384;0.040;2023-06-04T08:04:19;12.18;;;4.25;;
27706;SDS011;36332;51.384;0.040;2023-06-04T08:06:48;8.07;;;4.03;;
27706;SDS011;36332;51.384;0.040;2023-06-04T08:09:16;8.88;;;4.00;;
27706;SDS011;36332;51.384;0.040;2023-06-04T08:11:44;14.55;;;3.88;;
27706;SDS011;36332;51.384;0.040;2023-06-04T08:14:12;12.38;;;4.00;;
27706;SDS011;36332;51.384;0.040;2023-06-04T08:16:40;12.57;;;3.60;;
27706;SDS011;36332;51.384;0.040;2023-06-04T08:19:22;10.13;;;3.53;;
27706;SDS011;36332;51.384;0.040;2023-06-04T08:21:57;11.35;;;3.08;;
27706;SDS011;36332;51.384;0.040;2023-06-04T08:24:40;14.57;;;4.55;;
27706;SDS011;36332;51.384;0.040;2023-06-04T08:27:20;15.65;;;3.13;;
27706;SDS011;36332;51.384;0.040;2023-06-04T08:29:54;10.50;;;3.80;;
27706;SDS011;36332;51.384;0.040;2023-06-04T08:32:42;10.65;;;3.47;;
27706;SDS011;36332;51.384;0.040;2023-06-04T08:35:29;15.57;;;4.28;;
27706;SDS011;36332;51.384;0.040;2023-06-04T08:37:57;10.75;;;3.40;;
27706;SDS011;36332;51.384;0.040;2023-06-04T08:40:26;14.25;;;3.90;;
27706;SDS011;36332;51.384;0.040;2023-06-04T08:42:55;9.10;;;3.13;;
27706;SDS011;36332;51.384;0.040;2023-06-04T08:45:26;11.85;;;3.53;;
27706;SDS011;36332;51.384;0.040;2023-06-04T08:47:54;13.38;;;3.15;;
27706;SDS011;36332;51.384;0.040;2023-06-04T08:50:23;9.75;;;4.80;;
27706;SDS011;36332;51.384;0.040;2023-06-04T08:52:52;12.00;;;4.03;;
27706;SDS011;36332;51.384;0.040;2023-06-04T08:55:24;10.73;;;3.80;;
27706;SDS011;36332;51.384;0.040;2023-06-04T08:57:52;10.77;;;3.40;;
27706;SDS011;36332;51.384;0.040;2023-06-04T09:00:20;11.60;;;3.83;;
27706;SDS011;36332;51.384;0.040;2023-06-04T09:02:49;11.15;;;3.25;;
27706;SDS011;36332;51.384;0.040;2023-06-04T09:05:21;13.38;;;3.35;;
27706;SDS011;36332;51.384;0.040;2023-06-04T09:07:52;8.90;;;3.03;;
27706;SDS011;36332;51.384;0.040;2023-06-04T09:10:24;14.20;;;3.72;;
27706;SDS011;36332;51.384;0.040;2023-06-04T09:12:53;10.77;;;3.90;;
27706;SDS011;36332;51.384;0.040;2023-06-04T09:15:21;9.23;;;3.00;;
27706;SDS011;36332;51.384;0.040;2023-06-04T09:17:49;13.60;;;3.55;;
27706;SDS011;36332;51.384;0.040;2023-06-04T09:20:20;10.68;;;3.85;;
27706;SDS011;36332;51.384;0.040;2023-06-04T09:22:49;13.82;;;3.22;;
27706;SDS011;36332;51.384;0.040;2023-06-04T09:25:25;9.75;;;3.60;;
27706;SDS011;36332;51.384;0.040;2023-06-04T09:27:54;12.10;;;2.90;;
27706;SDS011;36332;51.384;0.040;2023-06-04T09:30:23;17.30;;;3.42;;
27706;SDS011;36332;51.384;0.040;2023-06-04T09:32:52;7.68;;;3.00;;
27706;SDS011;36332;51.384;0.040;2023-06-04T09:35:21;9.75;;;3.03;;
27706;SDS011;36332;51.384;0.040;2023-06-04T09:37:55;12.68;;;4.05;;
27706;SDS011;36332;51.384;0.040;2023-06-04T09:40:34;11.48;;;3.50;;
27706;SDS011;36332;51.384;0.040;2023-06-04T09:43:05;8.38;;;3.25;;
27706;SDS011;36332;51.384;0.040;2023-06-04T09:45:33;11.68;;;3.00;;
27706;SDS011;36332;51.384;0.040;2023-06-04T09:48:04;10.80;;;3.60;;
27706;SDS011;36332;51.384;0.040;2023-06-04T09:50:35;8.52;;;3.40;;
27706;SDS011;36332;51.384;0.040;2023-06-04T09:53:12;13.70;;;3.55;;
27706;SDS011;36332;51.384;0.040;2023-06-04T09:55:56;3.88;;;2.05;;
27706;SDS011;36332;51.384;0.040;2023-06-04T09:58:28;6.95;;;2.75;;
27706;SDS011;36332;51.384;0.040;2023-06-04T10:01:00;11.07;;;3.03;;
27706;SDS011;36332;51.384;0.040;2023-06-04T10:03:35;9.13;;;3.08;;
27706;SDS011;36332;51.384;0.040;2023-06-04T10:06:04;9.82;;;2.70;;
27706;SDS011;36332;51.384;0.040;2023-06-04T10:08:33;7.88;;;1.88;;
27706;SDS011;36332;51.384;0.040;2023-06-04T10:11:02;9.75;;;3.35;;
27706;SDS011;36332;51.384;0.040;2023-06-04T10:13:38;9.98;;;2.60;;
27706;SDS011;36332;51.384;0.040;2023-06-04T10:16:12;9.15;;;3.17;;
27706;SDS011;36332;51.384;0.040;2023-06-04T10:18:59;6.72;;;2.58;;
27706;SDS011;36332;51.384;0.040;2023-06-04T10:21:27;11.80;;;2.80;;
27706;SDS011;36332;51.384;0.040;2023-06-04T10:24:02;14.90;;;2.85;;
27706;SDS011;36332;51.384;0.040;2023-06-04T10:26:32;8.00;;;2.20;;
27706;SDS011;36332;51.384;0.040;2023-06-04T10:29:02;12.25;;;2.88;;
27706;SDS011;36332;51.384;0.040;2023-06-04T10:31:30;5.32;;;2.10;;
27706;SDS011;36332;51.384;0.040;2023-06-04T10:33:58;9.05;;;2.35;;
27706;SDS011;36332;51.384;0.040;2023-06-04T10:36:27;10.05;;;2.53;;
27706;SDS011;36332;51.384;0.040;2023-06-04T10:38:55;8.07;;;2.40;;
27706;SDS011;36332;51.384;0.040;2023-06-04T10:41:23;14.27;;;2.80;;
27706;SDS011;36332;51.384;0.040;2023-06-04T10:43:59;12.85;;;3.10;;
27706;SDS011;36332;51.384;0.040;2023-06-04T10:49:09;8.50;;;3.08;;
27706;SDS011;36332;51.384;0.040;2023-06-04T10:51:42;15.45;;;3.08;;
27706;SDS011;36332;51.384;0.040;2023-06-04T10:54:21;9.93;;;2.83;;
27706;SDS011;36332;51.384;0.040;2023-06-04T10:56:51;13.20;;;2.90;;
27706;SDS011;36332;51.384;0.040;2023-06-04T10:59:20;8.88;;;2.45;;
27706;SDS011;36332;51.384;0.040;2023-06-04T11:01:48;7.07;;;3.05;;
27706;SDS011;36332;51.384;0.040;2023-06-04T11:06:59;8.68;;;2.22;;
27706;SDS011;36332;51.384;0.040;2023-06-04T11:09:36;10.90;;;2.78;;
27706;SDS011;36332;51.384;0.040;2023-06-04T11:12:04;11.95;;;2.60;;
27706;SDS011;36332;51.384;0.040;2023-06-04T11:14:32;8.30;;;2.60;;
27706;SDS011;36332;51.384;0.040;2023-06-04T11:17:09;6.90;;;2.30;;
27706;SDS011;36332;51.384;0.040;2023-06-04T11:19:38;7.57;;;2.70;;
27706;SDS011;36332;51.384;0.040;2023-06-04T11:22:10;12.50;;;2.33;;
27706;SDS011;36332;51.384;0.040;2023-06-04T11:24:39;12.23;;;2.45;;
27706;SDS011;36332;51.384;0.040;2023-06-04T11:27:07;8.82;;;2.63;;
27706;SDS011;36332;51.384;0.040;2023-06-04T11:29:53;8.55;;;2.15;;
27706;SDS011;36332;51.384;0.040;2023-06-04T11:32:24;8.27;;;2.03;;
27706;SDS011;36332;51.384;0.040;2023-06-04T11:35:01;10.50;;;2.25;;
27706;SDS011;36332;51.384;0.040;2023-06-04T11:37:31;7.65;;;2.33;;
27706;SDS011;36332;51.384;0.040;2023-06-04T11:40:00;12.38;;;2.90;;
27706;SDS011;36332;51.384;0.040;2023-06-04T11:42:28;10.40;;;2.90;;
27706;SDS011;36332;51.384;0.040;2023-06-04T11:44:57;10.45;;;2.60;;
27706;SDS011;36332;51.384;0.040;2023-06-04T11:47:25;9.02;;;2.50;;
27706;SDS011;36332;51.384;0.040;2023-06-04T11:49:55;13.55;;;3.47;;
27706;SDS011;36332;51.384;0.040;2023-06-04T11:52:23;8.13;;;2.15;;
27706;SDS011;36332;51.384;0.040;2023-06-04T11:54:51;6.10;;;2.10;;
27706;SDS011;36332;51.384;0.040;2023-06-04T11:57:19;6.15;;;2.42;;
27706;SDS011;36332;51.384;0.040;2023-06-04T11:59:47;9.38;;;3.05;;
27706;SDS011;36332;51.384;0.040;2023-06-04T12:02:14;8.88;;;2.65;;
27706;SDS011;36332;51.384;0.040;2023-06-04T12:04:43;7.25;;;2.08;;
27706;SDS011;36332;51.384;0.040;2023-06-04T12:07:11;5.38;;;2.35;;
27706;SDS011;36332;51.384;0.040;2023-06-04T12:09:38;8.18;;;2.28;;
27706;SDS011;36332;51.384;0.040;2023-06-04T12:12:07;7.65;;;2.33;;
27706;SDS011;36332;51.384;0.040;2023-06-04T12:14:35;6.43;;;2.33;;
27706;SDS011;36332;51.384;0.040;2023-06-04T12:17:06;4.97;;;2.22;;
27706;SDS011;36332;51.384;0.040;2023-06-04T12:19:49;9.65;;;2.38;;
27706;SDS011;36332;51.384;0.040;2023-06-04T12:22:17;5.43;;;2.53;;
27706;SDS011;36332;51.384;0.040;2023-06-04T12:24:49;10.63;;;2.40;;
27706;SDS011;36332;51.384;0.040;2023-06-04T12:27:29;8.57;;;2.45;;
27706;SDS011;36332;51.384;0.040;2023-06-04T12:29:59;8.77;;;2.13;;
27706;SDS011;36332;51.384;0.040;2023-06-04T12:32:29;7.05;;;2.10;;
27706;SDS011;36332;51.384;0.040;2023-06-04T12:34:58;11.70;;;2.10;;
27706;SDS011;36332;51.384;0.040;2023-06-04T12:37:25;6.28;;;1.75;;
27706;SDS011;36332;51.384;0.040;2023-06-04T12:39:54;8.57;;;2.08;;
27706;SDS011;36332;51.384;0.040;2023-06-04T12:42:22;4.15;;;1.70;;
27706;SDS011;36332;51.384;0.040;2023-06-04T12:44:50;3.53;;;1.60;;
27706;SDS011;36332;51.384;0.040;2023-06-04T12:47:18;8.32;;;2.17;;
27706;SDS011;36332;51.384;0.040;2023-06-04T12:49:47;5.82;;;2.05;;
27706;SDS011;36332;51.384;0.040;2023-06-04T12:52:16;6.28;;;1.90;;
27706;SDS011;36332;51.384;0.040;2023-06-04T12:54:44;9.45;;;2.03;;
27706;SDS011;36332;51.384;0.040;2023-06-04T12:57:12;5.75;;;2.05;;
27706;SDS011;36332;51.384;0.040;2023-06-04T12:59:39;7.10;;;2.45;;
27706;SDS011;36332;51.384;0.040;2023-06-04T13:02:07;4.20;;;1.63;;
27706;SDS011;36332;51.384;0.040;2023-06-04T13:04:38;6.13;;;1.75;;
27706;SDS011;36332;51.384;0.040;2023-06-04T13:07:05;4.20;;;1.73;;
27706;SDS011;36332;51.384;0.040;2023-06-04T13:09:33;5.45;;;1.80;;
27706;SDS011;36332;51.384;0.040;2023-06-04T13:12:02;6.20;;;1.75;;
27706;SDS011;36332;51.384;0.040;2023-06-04T13:14:30;7.97;;;1.52;;
27706;SDS011;36332;51.384;0.040;2023-06-04T13:17:00;9.25;;;1.58;;
27706;SDS011;36332;51.384;0.040;2023-06-04T13:19:47;8.80;;;1.70;;
27706;SDS011;36332;51.384;0.040;2023-06-04T13:22:14;5.88;;;1.58;;
27706;SDS011;36332;51.384;0.040;2023-06-04T13:24:42;6.13;;;1.52;;
27706;SDS011;36332;51.384;0.040;2023-06-04T13:27:10;6.95;;;1.33;;
27706;SDS011;36332;51.384;0.040;2023-06-04T13:29:38;10.10;;;2.00;;
27706;SDS011;36332;51.384;0.040;2023-06-04T13:32:06;4.72;;;1.65;;
27706;SDS011;36332;51.384;0.040;2023-06-04T13:34:34;6.38;;;1.80;;
27706;SDS011;36332;51.384;0.040;2023-06-04T13:37:02;4.07;;;1.80;;
27706;SDS011;36332;51.384;0.040;2023-06-04T13:39:33;6.60;;;1.85;;
27706;SDS011;36332;51.384;0.040;2023-06-04T13:42:00;4.22;;;1.63;;
27706;SDS011;36332;51.384;0.040;2023-06-04T13:44:28;8.00;;;2.50;;
27706;SDS011;36332;51.384;0.040;2023-06-04T13:46:58;4.10;;;1.95;;
27706;SDS011;36332;51.384;0.040;2023-06-04T13:49:26;4.50;;;1.45;;
27706;SDS011;36332;51.384;0.040;2023-06-04T13:51:53;5.22;;;1.70;;
27706;SDS011;36332;51.384;0.040;2023-06-04T13:54:21;8.00;;;1.63;;
27706;SDS011;36332;51.384;0.040;2023-06-04T13:56:48;4.80;;;1.40;;
27706;SDS011;36332;51.384;0.040;2023-06-04T13:59:16;6.35;;;1.73;;
27706;SDS011;36332;51.384;0.040;2023-06-04T14:01:44;5.55;;;1.52;;
27706;SDS011;36332;51.384;0.040;2023-06-04T14:04:12;9.00;;;2.92;;
27706;SDS011;36332;51.384;0.040;2023-06-04T14:06:40;6.05;;;2.38;;
27706;SDS011;36332;51.384;0.040;2023-06-04T14:09:07;8.85;;;1.95;;
27706;SDS011;36332;51.384;0.040;2023-06-04T14:11:38;11.43;;;2.28;;
27706;SDS011;36332;51.384;0.040;2023-06-04T14:14:06;4.45;;;1.33;;
27706;SDS011;36332;51.384;0.040;2023-06-04T14:16:34;5.07;;;1.25;;
27706;SDS011;36332;51.384;0.040;2023-06-04T14:19:01;4.35;;;1.63;;
27706;SDS011;36332;51.384;0.040;2023-06-04T14:21:29;4.95;;;1.58;;
27706;SDS011;36332;51.384;0.040;2023-06-04T14:23:57;4.65;;;1.48;;
27706;SDS011;36332;51.384;0.040;2023-06-04T14:26:24;2.95;;;1.13;;
27706;SDS011;36332;51.384;0.040;2023-06-04T14:28:52;5.53;;;1.38;;
27706;SDS011;36332;51.384;0.040;2023-06-04T14:31:20;7.03;;;1.75;;
27706;SDS011;36332;51.384;0.040;2023-06-04T14:33:48;8.82;;;1.50;;
27706;SDS011;36332;51.384;0.040;2023-06-04T14:36:16;10.38;;;1.90;;
27706;SDS011;36332;51.384;0.040;2023-06-04T14:38:44;5.75;;;1.40;;
27706;SDS011;36332;51.384;0.040;2023-06-04T14:41:12;5.50;;;1.52;;
27706;SDS011;36332;51.384;0.040;2023-06-04T14:43:41;5.32;;;1.88;;
27706;SDS011;36332;51.384;0.040;2023-06-04T14:46:08;10.25;;;1.83;;
27706;SDS011;36332;51.384;0.040;2023-06-04T14:48:36;4.82;;;1.85;;
27706;SDS011;36332;51.384;0.040;2023-06-04T14:51:04;5.50;;;1.73;;
27706;SDS011;36332;51.384;0.040;2023-06-04T14:53:33;5.13;;;1.60;;
27706;SDS011;36332;51.384;0.040;2023-06-04T14:56:01;4.97;;;1.77;;
27706;SDS011;36332;51.384;0.040;2023-06-04T14:58:28;2.42;;;1.60;;
27706;SDS011;36332;51.384;0.040;2023-06-04T15:00:58;4.47;;;1.35;;